Time;durP1;ratioP1;P1;durP2;ratioP2;P2;SDS_P1;SDS_P2;PMS_P1;PMS_P2;Temp;Humidity;BMP_temperature;BMP_pressure;BME280_temperature;BME280_humidity;BME280_pressure;Samples;Min_cycle;Max_cycle;Signal;HPM_P1;HPM_P2
2021/05/30 00:02:55;;;;;;;4.03;3.20;;;;;;;;;;6283952;28;20025;-84
2021/05/30 00:05:56;;;;;;;4.85;3.33;;;;;;;;;;6272681;28;20115;-83
2021/05/30 00:08:57;;;;;;;4.53;3.50;;;;;;;;;;6295417;28;20108;-83
2021/05/30 00:11:58;;;;;;;3.50;3.03;;;;;;;;;;6291774;28;20028;-84
2021/05/30 00:14:59;;;;;;;4.75;3.50;;;;;;;;;;6284378;28;20035;-83
2021/05/30 00:18:00;;;;;;;4.82;3.30;;;9.40;99.90;;;;;;6316381;28;20027;-83
2021/05/30 00:21:00;;;;;;;3.20;2.90;;;9.60;99.90;;;;;;6294628;28;20122;-83
2021/05/30 00:24:01;;;;;;;3.08;2.78;;;9.60;99.90;;;;;;6299010;28;20021;-84
2021/05/30 00:27:01;;;;;;;3.25;2.72;;;9.60;99.90;;;;;;6299784;28;20103;-83
2021/05/30 00:30:03;;;;;;;3.47;2.75;;;;;;;;;;6273895;28;20078;-83
2021/05/30 00:33:04;;;;;;;4.18;3.03;;;9.40;99.90;;;;;;6274763;28;20120;-83
2021/05/30 00:36:04;;;;;;;3.55;3.15;;;9.70;99.90;;;;;;6293304;28;20036;-84
2021/05/30 00:39:05;;;;;;;5.32;3.25;;;9.30;99.90;;;;;;6267543;28;20430;-84
2021/05/30 00:42:06;;;;;;;5.50;3.45;;;9.50;99.90;;;;;;6298999;28;20107;-83
2021/05/30 00:45:07;;;;;;;3.80;3.00;;;;;;;;;;6299114;28;20103;-84
2021/05/30 00:48:08;;;;;;;3.60;3.17;;;;;;;;;;6299121;28;20020;-83
2021/05/30 00:51:09;;;;;;;2.90;2.60;;;9.30;99.90;;;;;;6300985;28;20021;-84
2021/05/30 00:54:10;;;;;;;3.33;3.03;;;;;;;;;;6274448;28;20036;-84
2021/05/30 00:57:11;;;;;;;2.92;2.63;;;9.20;99.90;;;;;;6273886;28;20433;-84
2021/05/30 01:00:12;;;;;;;4.88;3.17;;;9.20;99.90;;;;;;6257847;28;20040;-84
2021/05/30 01:03:13;;;;;;;3.45;2.83;;;9.10;99.90;;;;;;6257509;28;20501;-85
2021/05/30 01:06:14;;;;;;;3.38;3.00;;;;;;;;;;6274207;28;20039;-84
2021/05/30 01:09:14;;;;;;;3.33;2.80;;;9.10;99.90;;;;;;6274533;28;20039;-84
2021/05/30 01:12:15;;;;;;;3.30;2.65;;;;;;;;;;6283125;28;20044;-84
2021/05/30 01:15:16;;;;;;;3.55;2.72;;;9.30;99.90;;;;;;6297536;28;20027;-84
2021/05/30 01:18:21;;;;;;;2.85;2.53;;;8.10;98.40;;;;;;6281990;28;20032;-84
2021/05/30 01:21:22;;;;;;;3.85;2.85;;;9.20;99.90;;;;;;6260580;28;20040;-84
2021/05/30 01:24:22;;;;;;;4.97;2.75;;;9.20;99.90;;;;;;6273994;28;20036;-84
2021/05/30 01:27:23;;;;;;;2.80;2.50;;;9.40;99.90;;;;;;6259429;28;20059;-84
2021/05/30 01:30:24;;;;;;;3.20;2.90;;;;;;;;;;6286946;28;20113;-84
2021/05/30 01:33:24;;;;;;;3.35;2.92;;;9.10;99.90;;;;;;6267784;28;20039;-84
2021/05/30 01:36:25;;;;;;;2.88;2.63;;;;;;;;;;6281965;28;20031;-85
2021/05/30 01:39:26;;;;;;;2.70;2.50;;;9.20;99.90;;;;;;6277652;28;20094;-84
2021/05/30 01:42:27;;;;;;;3.15;2.83;;;9.00;99.90;;;;;;6273814;28;20395;-84
2021/05/30 01:45:30;;;;;;;3.50;3.00;;;;;;;;;;6273865;28;20028;-85
2021/05/30 01:48:31;;;;;;;2.58;2.38;;;8.90;99.90;;;;;;6277720;28;20077;-84
2021/05/30 01:51:32;;;;;;;4.60;2.90;;;;;;;;;;6261568;28;20028;-84
2021/05/30 01:54:33;;;;;;;3.13;2.83;;;8.90;99.90;;;;;;6297852;28;20084;-84
2021/05/30 01:57:47;;;;;;;3.17;2.70;;;9.10;97.70;;;;;;6285733;28;20445;-83
2021/05/30 02:00:49;;;;;;;3.75;2.90;;;9.10;99.30;;;;;;6302212;28;20040;-84
2021/05/30 02:03:49;;;;;;;4.97;2.83;;;8.90;99.90;;;;;;6286169;28;20032;-84
2021/05/30 02:06:50;;;;;;;2.92;2.65;;;;;;;;;;6302643;28;20115;-84
2021/05/30 02:09:51;;;;;;;3.70;2.80;;;8.70;99.90;;;;;;6302422;28;20035;-84
2021/05/30 02:12:53;;;;;;;5.10;3.00;;;9.20;99.90;;;;;;6276149;28;20025;-84
2021/05/30 02:15:54;;;;;;;4.13;3.00;;;8.60;99.90;;;;;;6261051;28;20039;-84
2021/05/30 02:18:54;;;;;;;4.00;3.20;;;8.90;99.90;;;;;;6277625;28;20064;-85
2021/05/30 02:21:55;;;;;;;5.13;3.50;;;8.70;99.90;;;;;;6268185;28;20032;-85
2021/05/30 02:24:56;;;;;;;3.72;2.70;;;8.80;99.90;;;;;;6301701;28;20036;-85
2021/05/30 02:27:56;;;;;;;5.93;3.00;;;9.00;99.90;;;;;;6285274;28;20020;-84
2021/05/30 02:30:57;;;;;;;3.60;3.08;;;9.20;99.90;;;;;;6301566;28;20102;-85
2021/05/30 02:33:58;;;;;;;6.68;3.70;;;;;;;;;;6301973;28;20028;-85
2021/05/30 02:36:59;;;;;;;4.30;2.95;;;9.00;99.90;;;;;;6298707;28;20382;-85
2021/05/30 02:39:59;;;;;;;3.78;3.00;;;9.10;99.90;;;;;;6247261;28;20060;-83
2021/05/30 02:43:01;;;;;;;6.30;3.28;;;;;;;;;;6265292;28;20031;-84
2021/05/30 02:46:02;;;;;;;4.40;2.80;;;9.40;99.90;;;;;;6265509;28;20036;-85
2021/05/30 02:49:03;;;;;;;3.78;2.95;;;8.80;99.90;;;;;;6277890;28;20545;-84
2021/05/30 02:52:04;;;;;;;5.57;3.00;;;8.80;99.90;;;;;;6301209;28;20031;-84
2021/05/30 02:55:05;;;;;;;3.83;3.22;;;8.70;99.90;;;;;;6301511;28;20520;-85
2021/05/30 02:58:06;;;;;;;3.47;2.90;;;;;;;;;;6265064;28;20028;-84
2021/05/30 03:01:07;;;;;;;5.30;3.08;;;;;;;;;;6270098;28;20128;-85
2021/05/30 03:04:08;;;;;;;3.72;2.83;;;;;;;;;;6276569;28;20029;-85
2021/05/30 03:07:09;;;;;;;3.53;2.90;;;8.70;99.90;;;;;;6289518;28;20099;-85
2021/05/30 03:10:10;;;;;;;3.92;3.20;;;;;;;;;;6267607;28;20028;-84
2021/05/30 03:13:11;;;;;;;3.85;3.25;;;;;;;;;;6295910;28;20097;-85
2021/05/30 03:16:12;;;;;;;3.53;2.72;;;;;;;;;;6279993;28;20495;-85
2021/05/30 03:19:13;;;;;;;3.80;2.90;;;;;;;;;;6317247;28;20131;-86
2021/05/30 03:22:14;;;;;;;3.42;2.63;;;;;;;;;;6292503;28;20025;-84
2021/05/30 03:25:15;;;;;;;5.90;2.88;;;8.70;99.90;;;;;;6292643;28;20020;-84
2021/05/30 03:28:16;;;;;;;2.90;2.70;;;;;;;;;;6276381;28;20028;-84
2021/05/30 03:31:16;;;;;;;3.33;3.03;;;8.60;98.60;;;;;;6288907;28;20533;-85
2021/05/30 03:34:17;;;;;;;3.97;2.88;;;;;;;;;;6259662;28;20028;-85
2021/05/30 03:37:18;;;;;;;3.63;2.63;;;8.70;98.80;;;;;;6278037;28;20028;-84
2021/05/30 03:43:25;;;;;;;3.40;2.95;;;8.70;99.90;;;;;;6292670;28;20119;-85
2021/05/30 03:46:27;;;;;;;7.15;4.32;;;8.60;99.90;;;;;;6269863;28;20039;-84
2021/05/30 03:49:28;;;;;;;3.83;2.70;;;;;;;;;;6253079;28;20481;-84
2021/05/30 03:52:28;;;;;;;3.08;2.78;;;8.50;99.90;;;;;;6283010;28;20060;-84
2021/05/30 03:55:29;;;;;;;3.38;2.95;;;8.40;99.90;;;;;;6275698;28;20024;-85
2021/05/30 03:58:31;;;;;;;3.28;2.80;;;8.50;99.90;;;;;;6259016;28;20025;-85
2021/05/30 04:01:31;;;;;;;2.90;2.60;;;9.70;99.90;;;;;;6250954;28;20127;-86
2021/05/30 04:04:32;;;;;;;3.33;2.78;;;8.40;99.90;;;;;;6252718;28;20065;-86
2021/05/30 04:07:33;;;;;;;4.15;3.30;;;8.30;99.90;;;;;;6267721;28;20039;-85
2021/05/30 04:10:33;;;;;;;3.75;3.10;;;8.80;99.90;;;;;;6299489;28;20393;-85
2021/05/30 04:13:34;;;;;;;3.88;3.22;;;9.30;99.90;;;;;;6280485;28;20468;-85
2021/05/30 04:16:35;;;;;;;3.75;3.20;;;9.30;99.90;;;;;;6258795;28;20033;-85
2021/05/30 04:19:35;;;;;;;4.30;2.78;;;9.70;99.70;;;;;;6265562;28;20076;-85
2021/05/30 04:22:36;;;;;;;4.80;2.67;;;10.00;98.00;;;;;;6299761;28;20074;-85
2021/05/30 04:25:37;;;;;;;3.20;2.90;;;;;;;;;;6282553;28;20446;-85
2021/05/30 04:28:38;;;;;;;4.30;2.90;;;10.90;94.70;;;;;;6316152;28;20023;-85
2021/05/30 04:31:38;;;;;;;4.57;2.72;;;11.20;96.40;;;;;;6277779;28;20097;-85
2021/05/30 04:34:39;;;;;;;3.28;2.92;;;11.60;95.00;;;;;;6274746;28;20064;-85
2021/05/30 04:37:40;;;;;;;3.00;2.65;;;;;;;;;;6263413;28;20032;-85
2021/05/30 04:40:41;;;;;;;4.28;2.75;;;12.70;99.90;;;;;;6315812;28;20055;-84
2021/05/30 04:43:41;;;;;;;3.28;2.97;;;12.70;93.20;;;;;;6299191;28;20055;-84
2021/05/30 04:46:42;;;;;;;4.05;2.83;;;13.00;92.30;;;;;;6282353;28;20689;-84
2021/05/30 04:49:42;;;;;;;3.25;2.60;;;13.20;92.30;;;;;;6249812;28;20036;-84
2021/05/30 04:52:43;;;;;;;4.18;2.75;;;13.50;91.70;;;;;;6275960;28;20502;-84
2021/05/30 04:55:43;;;;;;;2.97;2.53;;;13.70;91.50;;;;;;6274711;28;20048;-84
2021/05/30 04:58:44;;;;;;;3.17;2.42;;;14.20;94.60;;;;;;6290838;28;20107;-85
2021/05/30 05:01:45;;;;;;;4.15;3.00;;;;;;;;;;6263746;28;20036;-85
2021/05/30 05:04:46;;;;;;;3.83;2.65;;;14.50;89.10;;;;;;6282481;28;20063;-85
2021/05/30 05:07:46;;;;;;;3.78;2.70;;;14.60;90.60;;;;;;6274372;28;20537;-85
2021/05/30 05:10:47;;;;;;;5.03;2.67;;;;;;;;;;6281448;28;20027;-86
2021/05/30 05:13:48;;;;;;;3.03;2.70;;;15.20;85.10;;;;;;6274017;28;20032;-85
2021/05/30 05:16:48;;;;;;;3.45;2.80;;;15.30;86.50;;;;;;6266865;28;20074;-85
2021/05/30 05:19:49;;;;;;;3.25;2.72;;;15.30;87.40;;;;;;6298614;28;20488;-86
2021/05/30 05:22:50;;;;;;;3.72;2.85;;;15.80;96.10;;;;;;6283571;28;20034;-86
2021/05/30 05:25:51;;;;;;;3.35;2.70;;;;;;;;;;6280681;28;20029;-86
2021/05/30 05:28:53;;;;;;;2.92;2.63;;;16.90;91.30;;;;;;6284155;28;20108;-85
2021/05/30 05:31:54;;;;;;;2.70;2.40;;;16.80;81.20;;;;;;6287066;28;20367;-85
2021/05/30 05:34:54;;;;;;;2.83;2.63;;;17.20;77.30;;;;;;6302884;28;20036;-85
2021/05/30 05:37:56;;;;;;;2.90;2.60;;;17.70;76.40;;;;;;6286680;28;20026;-86
2021/05/30 05:40:57;;;;;;;3.42;2.67;;;;;;;;;;6283303;28;20048;-86
2021/05/30 05:43:58;;;;;;;3.45;2.80;;;18.40;74.20;;;;;;6295509;28;20024;-85
2021/05/30 05:46:58;;;;;;;4.35;2.60;;;18.60;75.90;;;;;;6278241;28;20035;-86
2021/05/30 05:49:59;;;;;;;2.72;2.53;;;18.90;86.10;;;;;;6261653;28;20477;-85
2021/05/30 05:52:59;;;;;;;3.97;3.10;;;18.90;73.10;;;;;;6261638;28;20028;-85
2021/05/30 05:56:00;;;;;;;3.85;3.10;;;18.90;70.20;;;;;;6295078;28;20033;-85
2021/05/30 05:59:01;;;;;;;4.78;2.53;;;19.40;68.20;;;;;;6278383;28;20382;-85
2021/05/30 06:02:01;;;;;;;3.80;3.00;;;19.80;64.60;;;;;;6261826;28;20040;-86
2021/05/30 06:05:03;;;;;;;5.65;2.30;;;19.90;65.40;;;;;;6271105;28;20032;-86
2021/05/30 06:08:04;;;;;;;2.50;2.30;;;20.20;63.60;;;;;;6302769;28;20028;-85
2021/05/30 06:11:04;;;;;;;2.60;2.40;;;21.00;80.40;;;;;;6278700;28;20454;-86
2021/05/30 06:14:05;;;;;;;3.30;2.50;;;21.30;88.20;;;;;;6277929;28;20060;-86
2021/05/30 06:17:06;;;;;;;2.80;2.60;;;21.80;83.90;;;;;;6277808;28;20029;-85
2021/05/30 06:20:07;;;;;;;3.13;2.30;;;22.00;82.40;;;;;;6294370;28;20044;-84
2021/05/30 06:23:08;;;;;;;2.53;2.33;;;22.20;79.60;;;;;;6253556;28;20119;-84
2021/05/30 06:26:10;;;;;;;2.40;2.20;;;22.60;68.30;;;;;;6296025;28;20032;-85
2021/05/30 06:29:11;;;;;;;3.45;2.40;;;;;;;;;;6261217;28;20035;-85
2021/05/30 06:32:12;;;;;;;2.85;2.40;;;;;;;;;;6277541;28;20028;-85
2021/05/30 06:35:13;;;;;;;2.67;2.47;;;23.90;79.10;;;;;;6296111;28;20021;-85
2021/05/30 06:38:14;;;;;;;2.40;2.20;;;;;;;;;;6277541;28;20512;-87
2021/05/30 06:41:17;;;;;;;2.40;2.25;;;24.80;75.00;;;;;;6267123;28;20097;-83
2021/05/30 06:44:18;;;;;;;2.85;2.30;;;24.60;64.60;;;;;;6289537;28;20393;-87
2021/05/30 06:47:19;;;;;;;2.53;2.25;;;;;;;;;;6301613;28;20032;-80
2021/05/30 06:50:20;;;;;;;10.52;2.30;;;;;;;;;;6320038;28;20036;-80
2021/05/30 06:53:21;;;;;;;3.10;2.38;;;24.10;55.90;;;;;;6304352;28;20055;-82
2021/05/30 06:56:22;;;;;;;2.53;2.33;;;23.50;59.80;;;;;;6282785;28;20459;-84
2021/05/30 06:59:23;;;;;;;3.30;2.40;;;23.80;51.60;;;;;;6271383;28;20069;-83
2021/05/30 07:02:24;;;;;;;4.07;2.43;;;23.70;47.00;;;;;;6301314;28;20035;-80
2021/05/30 07:05:25;;;;;;;2.50;2.30;;;22.80;45.90;;;;;;6286364;28;20020;-78
2021/05/30 07:08:26;;;;;;;2.97;2.28;;;22.40;46.60;;;;;;6295395;28;20102;-79
2021/05/30 07:11:27;;;;;;;2.72;2.47;;;22.20;47.30;;;;;;6267470;28;20097;-79
2021/05/30 07:14:27;;;;;;;2.35;2.15;;;22.40;47.20;;;;;;6292418;28;20025;-80
2021/05/30 07:17:28;;;;;;;3.15;2.30;;;21.90;46.80;;;;;;6268905;28;20158;-82
2021/05/30 07:20:28;;;;;;;2.50;2.20;;;21.50;48.50;;;;;;6314858;28;20508;-81
2021/05/30 07:23:29;;;;;;;2.63;2.40;;;20.80;66.90;;;;;;6291784;28;20028;-82
2021/05/30 07:26:36;;;;;;;4.22;2.47;;;20.90;47.20;;;;;;6264542;28;20636;-82
2021/05/30 07:29:37;;;;;;;5.07;2.47;;;20.80;50.60;;;;;;6264097;28;20029;-81
2021/05/30 07:32:37;;;;;;;2.95;2.50;;;20.60;65.30;;;;;;6277173;28;20459;-81
2021/05/30 07:35:38;;;;;;;2.50;2.30;;;21.00;63.10;;;;;;6293259;28;20032;-83
2021/05/30 07:38:39;;;;;;;3.28;2.50;;;20.70;64.30;;;;;;6261493;28;20029;-81
2021/05/30 07:41:39;;;;;;;3.60;2.42;;;21.20;48.10;;;;;;6277433;28;20071;-81
2021/05/30 07:44:40;;;;;;;2.63;2.40;;;20.50;49.30;;;;;;6263060;28;20109;-80
2021/05/30 07:47:41;;;;;;;2.55;2.35;;;20.60;47.60;;;;;;6257607;28;20125;-79
2021/05/30 07:50:41;;;;;;;3.20;2.40;;;20.70;49.60;;;;;;6261043;28;20405;-80
2021/05/30 07:53:42;;;;;;;2.47;2.20;;;21.20;48.90;;;;;;6251663;28;20040;-79
2021/05/30 07:56:42;;;;;;;3.35;2.42;;;22.00;46.30;;;;;;6284077;28;20110;-79
2021/05/30 07:59:43;;;;;;;2.75;2.55;;;21.60;46.10;;;;;;6274691;28;20040;-80
2021/05/30 08:02:44;;;;;;;4.13;2.17;;;;;;;;;;6289159;28;20715;-78
2021/05/30 08:05:45;;;;;;;2.35;2.15;;;22.20;44.10;;;;;;6303882;28;20107;-80
2021/05/30 08:08:45;;;;;;;2.88;2.53;;;22.20;45.60;;;;;;6293460;28;20097;-76
2021/05/30 08:11:46;;;;;;;3.40;2.33;;;22.00;45.80;;;;;;6292497;28;20041;-81
2021/05/30 08:14:47;;;;;;;3.05;2.58;;;21.70;47.10;;;;;;6274850;28;20028;-80
2021/05/30 08:17:47;;;;;;;2.60;2.40;;;22.00;48.70;;;;;;6297656;28;20503;-82
2021/05/30 08:20:48;;;;;;;2.50;2.30;;;22.00;46.70;;;;;;6299354;28;20040;-82
2021/05/30 08:23:49;;;;;;;2.50;2.30;;;22.00;46.40;;;;;;6299664;28;20085;-81
2021/05/30 08:26:51;;;;;;;3.58;2.80;;;22.30;46.70;;;;;;6298939;28;20458;-79
2021/05/30 08:29:51;;;;;;;3.53;2.47;;;23.10;46.60;;;;;;6269978;28;20036;-80
2021/05/30 08:32:52;;;;;;;5.72;3.55;;;23.10;45.00;;;;;;6299604;28;20031;-81
2021/05/30 08:35:52;;;;;;;3.05;2.75;;;22.90;45.40;;;;;;6296709;28;20032;-83
2021/05/30 08:38:53;;;;;;;3.00;2.60;;;22.90;44.60;;;;;;6294591;28;20660;-82
2021/05/30 08:41:54;;;;;;;3.30;3.00;;;23.10;45.80;;;;;;6280880;28;20056;-78
2021/05/30 08:44:54;;;;;;;3.45;2.97;;;23.60;44.20;;;;;;6306178;28;20034;-82
2021/05/30 08:47:55;;;;;;;2.75;2.40;;;23.80;42.30;;;;;;6267378;28;20454;-83
2021/05/30 08:51:03;;;;;;;2.75;2.55;;;23.60;43.20;;;;;;6273604;28;20676;-80
2021/05/30 08:54:08;;;;;;;3.08;2.78;;;23.40;43.80;;;;;;6300187;28;20028;-83
2021/05/30 08:57:09;;;;;;;2.55;2.22;;;23.60;43.20;;;;;;6312012;28;20024;-84
2021/05/30 09:00:11;;;;;;;2.75;2.53;;;23.20;43.40;;;;;;6281254;28;20115;-88
2021/05/30 09:03:15;;;;;;;3.67;2.58;;;23.70;44.70;;;;;;6275448;28;20077;-84
2021/05/30 09:06:16;;;;;;;2.55;2.35;;;23.50;42.20;;;;;;6279322;28;20035;-78
2021/05/30 09:09:17;;;;;;;2.60;2.40;;;23.50;43.20;;;;;;6279949;28;20028;-78
2021/05/30 09:12:28;;;;;;;3.33;3.03;;;23.50;43.80;;;;;;6307506;28;20032;-79
2021/05/30 09:15:47;;;;;;;2.90;2.50;;;24.30;43.70;;;;;;6275785;28;20115;-81
2021/05/30 09:18:48;;;;;;;7.97;2.97;;;23.30;43.50;;;;;;6296524;28;20029;-80
2021/05/30 09:21:48;;;;;;;2.75;2.33;;;23.90;42.50;;;;;;6278710;28;20462;-78
2021/05/30 09:24:52;;;;;;;2.60;2.40;;;23.30;43.80;;;;;;6307357;28;20071;-81
2021/05/30 09:28:03;;;;;;;3.35;2.47;;;22.70;42.80;;;;;;6305259;28;20029;-82
2021/05/30 09:31:03;;;;;;;3.03;2.70;;;22.50;47.10;;;;;;6279456;28;20032;-82
2021/05/30 09:34:38;;;;;;;3.10;2.70;;;22.60;48.00;;;;;;6288887;28;20039;-82
2021/05/30 09:37:39;;;;;;;2.50;2.30;;;22.60;47.30;;;;;;6214991;28;20046;-81
2021/05/30 09:40:45;;;;;;;3.28;2.90;;;23.40;57.00;;;;;;6226515;28;20068;-79
2021/05/30 09:43:49;;;;;;;2.75;2.50;;;23.50;43.80;;;;;;6227546;28;20029;-79
2021/05/30 09:46:49;;;;;;;2.63;2.20;;;23.00;42.30;;;;;;6210972;28;20579;-87
2021/05/30 09:49:53;;;;;;;4.28;2.30;;;23.80;43.10;;;;;;6211406;28;20124;-84
2021/05/30 09:52:53;;;;;;;2.97;2.63;;;23.70;42.60;;;;;;6221980;28;20049;-83
2021/05/30 09:55:54;;;;;;;2.53;2.33;;;24.00;40.60;;;;;;6210736;28;20140;-80
2021/05/30 09:58:54;;;;;;;2.97;2.47;;;24.10;53.10;;;;;;6227214;28;20072;-85
2021/05/30 10:01:59;;;;;;;3.80;2.42;;;24.30;71.90;;;;;;6208474;28;20531;-84
2021/05/30 10:05:00;;;;;;;3.08;2.60;;;24.30;71.70;;;;;;6210124;28;20038;-81
2021/05/30 10:08:00;;;;;;;3.85;2.25;;;24.30;55.40;;;;;;6242892;28;20037;-82
2021/05/30 10:11:01;;;;;;;3.92;2.63;;;24.80;53.50;;;;;;6210342;28;20123;-81
2021/05/30 10:14:02;;;;;;;3.20;2.90;;;24.40;55.00;;;;;;6246788;28;20037;-82
2021/05/30 10:17:03;;;;;;;2.90;2.47;;;23.90;44.40;;;;;;6253215;28;20029;-83
2021/05/30 10:20:05;;;;;;;3.47;2.65;;;23.80;44.10;;;;;;6246470;28;20040;-82
2021/05/30 10:23:05;;;;;;;;;;;24.20;42.10;;;;;;6258659;28;20409;-85
2021/05/30 10:26:31;;;;;;;4.20;2.90;;;23.70;44.00;;;;;;6273286;28;19912;-90
2021/05/30 10:29:31;;;;;;;3.55;2.30;;;23.40;42.00;;;;;;6265268;28;20051;-87
2021/05/30 10:32:32;;;;;;;3.05;2.50;;;23.60;43.60;;;;;;6249157;28;20053;-81
2021/05/30 10:35:33;;;;;;;4.43;2.60;;;23.90;44.30;;;;;;6261745;28;20056;-80
2021/05/30 10:38:43;;;;;;;4.47;2.60;;;23.00;59.60;;;;;;6268021;28;20025;-82
2021/05/30 10:42:13;;;;;;;3.90;2.60;;;23.00;43.30;;;;;;6296096;28;20433;-78
2021/05/30 10:45:17;;;;;;;3.55;2.78;;;22.70;42.00;;;;;;6318748;28;20043;-82
2021/05/30 10:48:18;;;;;;;3.67;2.67;;;22.50;46.60;;;;;;6306495;28;20543;-79
2021/05/30 10:51:29;;;;;;;5.72;2.80;;;22.30;43.00;;;;;;6278982;28;20024;-80
2021/05/30 10:54:32;;;;;;;2.50;2.30;;;22.50;43.70;;;;;;6303117;28;20085;-81
2021/05/30 10:57:37;;;;;;;3.35;2.60;;;22.50;44.10;;;;;;6286258;28;20029;-82
2021/05/30 11:00:38;;;;;;;3.63;2.70;;;22.80;44.60;;;;;;6292969;28;20028;-77
2021/05/30 11:03:42;;;;;;;6.88;2.92;;;22.40;45.80;;;;;;6260717;28;20120;-79
2021/05/30 11:06:43;;;;;;;2.90;2.60;;;22.30;46.00;;;;;;6279703;28;20027;-79
2021/05/30 11:09:58;;;;;;;2.97;2.67;;;22.00;43.70;;;;;;6280970;28;20103;-81
2021/05/30 11:12:59;;;;;;;3.58;2.50;;;21.90;44.40;;;;;;6305751;28;20028;-84
2021/05/30 11:16:06;;;;;;;4.53;2.60;;;22.40;46.40;;;;;;6263528;28;20525;-84
2021/05/30 11:19:13;;;;;;;2.97;2.70;;;22.40;44.30;;;;;;6254821;28;20060;-83
2021/05/30 11:22:14;;;;;;;3.50;3.17;;;22.50;43.30;;;;;;6276208;28;20040;-91
2021/05/30 11:25:17;;;;;;;6.05;2.60;;;22.40;46.00;;;;;;6251441;28;20390;-87
2021/05/30 11:28:25;;;;;;;3.13;2.80;;;22.30;43.10;;;;;;6259391;28;20726;-82
2021/05/30 11:31:26;;;;;;;3.72;2.72;;;22.00;44.10;;;;;;6257639;28;20058;-82
2021/05/30 11:34:33;;;;;;;3.25;2.25;;;22.40;46.40;;;;;;6272819;28;20029;-84
2021/05/30 11:37:34;;;;;;;3.58;2.63;;;22.50;43.50;;;;;;6275978;28;20071;-79
2021/05/30 11:40:35;;;;;;;2.75;2.40;;;22.60;42.90;;;;;;6292046;28;20375;-86
2021/05/30 11:43:36;;;;;;;13.63;2.92;;;22.80;44.80;;;;;;6268640;28;20020;-83
2021/05/30 11:46:40;;;;;;;2.42;2.22;;;23.20;43.10;;;;;;6266477;28;20033;-83
2021/05/30 11:49:40;;;;;;;4.70;2.40;;;22.50;41.90;;;;;;6253656;28;20031;-82
2021/05/30 11:52:41;;;;;;;2.80;2.50;;;22.50;42.30;;;;;;6300650;28;20539;-83
2021/05/30 11:55:42;;;;;;;3.55;2.20;;;22.40;43.50;;;;;;6309810;28;20028;-81
2021/05/30 11:58:46;;;;;;;2.70;2.22;;;22.20;41.40;;;;;;6299892;28;20469;-80
2021/05/30 12:01:48;;;;;;;2.40;2.20;;;21.70;70.20;;;;;;6299401;28;20039;-81
2021/05/30 12:04:49;;;;;;;3.78;2.15;;;;;;;;;;6292980;28;20385;-82
2021/05/30 12:07:50;;;;;;;3.60;2.50;;;;;;;;;;6291581;28;20099;-80
2021/05/30 12:10:58;;;;;;;4.00;2.40;;;22.10;53.60;;;;;;6292457;28;20028;-80
2021/05/30 12:14:05;;;;;;;3.60;2.50;;;22.10;44.50;;;;;;6249064;28;20044;-79
2021/05/30 12:17:10;;;;;;;5.97;2.70;;;22.00;42.40;;;;;;6258439;28;20453;-81
2021/05/30 12:20:21;;;;;;;4.43;2.42;;;22.20;44.30;;;;;;6286314;28;20059;-84
2021/05/30 12:23:21;;;;;;;2.70;2.28;;;22.30;42.90;;;;;;6267467;28;20028;-81
2021/05/30 12:26:23;;;;;;;2.53;2.30;;;22.30;41.30;;;;;;6271179;28;20111;-83
2021/05/30 12:29:23;;;;;;;2.47;2.28;;;22.10;41.00;;;;;;6307454;28;20028;-81
2021/05/30 12:32:24;;;;;;;3.13;2.50;;;22.00;41.30;;;;;;6298848;28;20032;-78
2021/05/30 12:35:45;;;;;;;4.88;2.92;;;22.20;41.80;;;;;;6293427;28;20020;-79
2021/05/30 12:38:46;;;;;;;3.70;2.47;;;22.50;44.30;;;;;;6288947;28;20089;-79
2021/05/30 12:41:49;;;;;;;3.40;2.33;;;22.00;40.20;;;;;;6317157;28;20395;-80
2021/05/30 12:44:52;;;;;;;3.05;2.40;;;22.00;39.70;;;;;;6282673;28;20035;-82
2021/05/30 12:47:53;;;;;;;5.07;2.80;;;21.60;42.20;;;;;;6291981;28;20033;-80
2021/05/30 12:50:54;;;;;;;4.57;2.50;;;22.00;42.30;;;;;;6267678;28;20144;-81
2021/05/30 12:53:55;;;;;;;3.70;2.50;;;22.20;44.80;;;;;;6308615;28;20028;-82
2021/05/30 12:56:56;;;;;;;4.90;2.90;;;22.50;60.50;;;;;;6299095;28;20032;-81
2021/05/30 12:59:56;;;;;;;3.07;2.50;;;22.50;45.00;;;;;;6315653;28;20045;-81
2021/05/30 13:03:02;;;;;;;3.63;2.70;;;22.10;42.40;;;;;;6315947;28;20353;-80
2021/05/30 13:06:08;;;;;;;3.00;2.70;;;22.10;42.70;;;;;;6269673;28;20035;-80
2021/05/30 13:09:09;;;;;;;2.70;2.50;;;22.40;43.30;;;;;;6274334;28;20048;-79
2021/05/30 13:12:38;;;;;;;3.45;2.70;;;22.50;46.20;;;;;;6275973;28;20024;-81
2021/05/30 13:15:44;;;;;;;3.53;2.97;;;22.60;40.70;;;;;;6305696;28;20041;-86
2021/05/30 13:18:55;;;;;;;5.65;3.47;;;22.60;42.70;;;;;;6276079;28;20078;-83
2021/05/30 13:22:04;;;;;;;4.93;3.00;;;22.70;40.80;;;;;;6286794;28;20432;-84
2021/05/30 13:25:05;;;;;;;4.57;3.08;;;22.80;42.80;;;;;;6277004;28;20024;-86
2021/05/30 13:28:11;;;;;;;3.40;3.10;;;22.40;41.70;;;;;;6290110;28;20063;-85
2021/05/30 13:31:17;;;;;;;3.75;3.13;;;22.30;60.20;;;;;;6304959;28;20085;-86
2021/05/30 13:34:18;;;;;;;5.13;3.13;;;22.20;44.00;;;;;;6269836;28;20025;-86
2021/05/30 13:37:19;;;;;;;4.78;3.13;;;22.10;42.80;;;;;;6257159;28;20382;-85
2021/05/30 13:40:20;;;;;;;4.03;3.50;;;22.10;43.20;;;;;;6253528;28;20051;-85
2021/05/30 13:43:21;;;;;;;4.13;2.85;;;22.30;44.00;;;;;;6252483;28;20036;-88
2021/05/30 13:46:21;;;;;;;4.22;3.10;;;24.30;45.20;;;;;;6275687;28;20492;-87
2021/05/30 13:49:22;;;;;;;5.88;3.20;;;22.00;45.00;;;;;;6284493;28;20051;-87
2021/05/30 13:52:22;;;;;;;3.85;3.05;;;22.20;57.70;;;;;;6261017;28;20486;-84
2021/05/30 13:55:23;;;;;;;3.50;2.90;;;22.10;43.00;;;;;;6268924;28;20025;-87
2021/05/30 13:58:25;;;;;;;4.78;3.10;;;22.10;43.90;;;;;;6272603;28;20058;-84
2021/05/30 14:01:29;;;;;;;4.00;3.13;;;22.10;44.30;;;;;;6281628;28;20588;-84
2021/05/30 14:04:30;;;;;;;4.22;3.10;;;22.50;44.60;;;;;;6270138;28;20024;-83
2021/05/30 14:07:36;;;;;;;4.63;3.20;;;22.00;48.00;;;;;;6275187;28;20108;-86
2021/05/30 14:10:37;;;;;;;4.13;3.10;;;21.80;45.70;;;;;;6259127;28;20048;-85
2021/05/30 14:13:38;;;;;;;4.82;3.47;;;22.10;43.90;;;;;;6280265;28;20150;-87
2021/05/30 14:16:39;;;;;;;4.30;3.00;;;22.00;45.20;;;;;;6272233;28;20024;-83
2021/05/30 14:19:40;;;;;;;5.18;2.92;;;;;;;;;;6272853;28;20042;-88
2021/05/30 14:22:41;;;;;;;3.78;3.30;;;21.90;44.00;;;;;;6307154;28;20032;-84
2021/05/30 14:25:42;;;;;;;3.60;3.10;;;22.00;47.00;;;;;;6253802;28;20032;-87
2021/05/30 14:28:43;;;;;;;4.75;3.05;;;22.10;48.00;;;;;;6276238;28;20505;-83
2021/05/30 14:31:44;;;;;;;4.80;3.30;;;;;;;;;;6279524;28;20024;-85
2021/05/30 14:34:44;;;;;;;3.17;2.88;;;21.80;59.00;;;;;;6274872;28;20770;-89
2021/05/30 14:37:45;;;;;;;4.22;3.22;;;22.00;47.90;;;;;;6262317;28;20027;-86
2021/05/30 14:40:46;;;;;;;4.40;3.70;;;;;;;;;;6276159;28;20163;-88
2021/05/30 14:43:47;;;;;;;4.15;3.28;;;21.60;75.70;;;;;;6308910;28;20032;-87
2021/05/30 14:46:47;;;;;;;4.32;3.25;;;21.70;76.50;;;;;;6272838;28;20031;-87
2021/05/30 14:49:49;;;;;;;4.18;2.90;;;21.80;77.00;;;;;;6312618;28;20032;-85
2021/05/30 14:52:49;;;;;;;4.32;3.15;;;22.00;61.80;;;;;;6271528;28;20032;-86
2021/05/30 14:55:50;;;;;;;5.57;3.70;;;;;;;;;;6272517;28;20435;-88
2021/05/30 14:58:51;;;;;;;4.13;3.35;;;22.20;73.20;;;;;;6279862;28;20025;-86
2021/05/30 15:01:52;;;;;;;5.32;3.50;;;;;;;;;;6270518;28;20131;-86
2021/05/30 15:04:59;;;;;;;4.35;3.30;;;21.70;55.30;;;;;;6307863;28;20070;-88
2021/05/30 15:08:00;;;;;;;7.28;3.78;;;;;;;;;;6260684;28;20024;-88
2021/05/30 15:11:01;;;;;;;3.97;3.22;;;;;;;;;;6273954;28;20046;-85
2021/05/30 15:14:02;;;;;;;4.35;3.22;;;;;;;;;;6284856;28;20451;-82
2021/05/30 15:17:03;;;;;;;3.63;3.25;;;21.50;76.60;;;;;;6293966;28;20021;-80
2021/05/30 15:20:04;;;;;;;6.45;3.67;;;21.50;76.20;;;;;;6317472;28;20047;-84
2021/05/30 15:23:05;;;;;;;3.50;3.20;;;;;;;;;;6268272;28;20114;-84
2021/05/30 15:26:06;;;;;;;5.28;3.45;;;;;;;;;;6279937;28;20020;-90
2021/05/30 15:29:07;;;;;;;4.30;3.50;;;21.40;77.80;;;;;;6273931;28;20050;-89
2021/05/30 15:32:08;;;;;;;7.85;3.75;;;21.40;76.20;;;;;;6272372;28;20407;-91
2021/05/30 15:35:52;;;;;;;4.40;3.55;;;21.30;60.40;;;;;;6276104;28;20410;-91
2021/05/30 15:38:53;;;;;;;6.57;3.75;;;21.30;60.00;;;;;;6283112;28;20413;-82
2021/05/30 15:41:53;;;;;;;6.70;3.50;;;21.10;64.70;;;;;;6268139;28;20044;-90
2021/05/30 15:44:54;;;;;;;4.80;3.58;;;21.00;64.70;;;;;;6252090;28;20504;-87
2021/05/30 15:47:55;;;;;;;5.97;3.65;;;;;;;;;;6259376;28;20021;-90
2021/05/30 15:54:15;;;;;;;4.45;3.35;;;21.40;74.70;;;;;;6310426;28;20106;-85
2021/05/30 15:57:16;;;;;;;4.13;3.38;;;21.40;76.30;;;;;;6290822;28;20377;-85
2021/05/30 16:00:17;;;;;;;4.10;3.53;;;21.20;76.10;;;;;;6250009;28;20039;-84
2021/05/30 16:03:17;;;;;;;3.63;3.05;;;21.10;65.00;;;;;;6289114;28;20427;-85
2021/05/30 16:06:19;;;;;;;4.63;3.90;;;;;;;;;;6274149;28;20020;-86
2021/05/30 16:09:19;;;;;;;5.80;3.67;;;21.00;75.90;;;;;;6283768;28;20499;-88
2021/05/30 16:12:21;;;;;;;6.68;3.78;;;21.10;75.60;;;;;;6274812;28;20028;-87
2021/05/30 16:15:22;;;;;;;5.15;3.53;;;;;;;;;;6285311;28;20025;-83
2021/05/30 16:18:23;;;;;;;8.20;3.88;;;20.90;67.90;;;;;;6282048;28;20020;-79
2021/05/30 16:21:23;;;;;;;6.93;3.70;;;21.00;69.70;;;;;;6294084;28;20032;-86